Time;durP1;ratioP1;P1;durP2;ratioP2;P2;SDS_P1;SDS_P2;PMS_P1;PMS_P2;Temp;Humidity;BMP_temperature;BMP_pressure;BME280_temperature;BME280_humidity;BME280_pressure;Samples;Min_cycle;Max_cycle;Signal;HPM_P1;HPM_P2
2022/10/12 00:01:26;;;;;;;40.35;19.30;;;10.10;99.90;;;;;;5053128;28;20612;-81
2022/10/12 00:04:15;;;;;;;34.95;18.80;;;10.20;99.90;;;;;;5054392;28;20771;-82
2022/10/12 00:07:04;;;;;;;36.08;18.20;;;10.10;99.90;;;;;;5056102;28;20232;-81
2022/10/12 00:09:54;;;;;;;32.88;17.90;;;10.20;99.90;;;;;;5059839;28;20228;-81
2022/10/12 00:12:45;;;;;;;40.15;19.35;;;10.20;99.90;;;;;;5054126;28;20220;-82
2022/10/12 00:15:37;;;;;;;38.78;17.75;;;10.10;99.90;;;;;;5057826;28;20232;-80
2022/10/12 00:18:25;;;;;;;34.63;17.48;;;10.10;99.90;;;;;;5057996;28;20715;-80
2022/10/12 00:21:16;;;;;;;37.78;17.48;;;10.20;99.90;;;;;;5060146;28;20228;-80
2022/10/12 00:24:06;;;;;;;33.35;17.45;;;10.10;99.90;;;;;;5062845;28;20220;-80
2022/10/12 00:26:56;;;;;;;34.90;18.25;;;10.00;99.90;;;;;;5064848;28;20216;-79
2022/10/12 00:29:45;;;;;;;38.28;17.42;;;10.00;99.90;;;;;;5061471;28;20204;-80
2022/10/12 00:32:33;;;;;;;34.22;18.40;;;10.10;99.90;;;;;;5059281;28;20216;-80
2022/10/12 00:35:22;;;;;;;29.70;17.00;;;10.00;99.90;;;;;;5060351;28;20312;-81
2022/10/12 00:38:11;;;;;;;34.15;17.60;;;9.90;99.90;;;;;;5062618;28;20228;-80
2022/10/12 00:41:00;;;;;;;30.40;17.25;;;9.90;99.90;;;;;;5065970;28;20247;-80
2022/10/12 00:43:50;;;;;;;33.58;17.45;;;9.90;99.90;;;;;;5062656;28;20227;-79
2022/10/12 00:46:46;;;;;;;31.05;17.35;;;9.80;99.90;;;;;;5060524;28;20224;-80
2022/10/12 00:49:36;;;;;;;38.35;17.73;;;9.90;99.90;;;;;;5063254;28;20274;-79
2022/10/12 00:52:32;;;;;;;32.63;18.10;;;9.80;99.90;;;;;;5072626;28;20298;-81
2022/10/12 00:55:23;;;;;;;35.22;18.50;;;9.80;99.90;;;;;;5063144;28;20303;-80
2022/10/12 00:58:12;;;;;;;31.88;17.92;;;9.80;99.90;;;;;;5062586;28;20286;-81
2022/10/12 01:01:03;;;;;;;35.90;17.40;;;9.90;99.90;;;;;;5060319;28;20724;-78
2022/10/12 01:03:52;;;;;;;37.78;18.60;;;9.80;99.90;;;;;;5062666;28;20590;-81
2022/10/12 01:06:41;;;;;;;31.30;17.00;;;9.80;99.90;;;;;;5062404;28;20228;-81
2022/10/12 01:09:31;;;;;;;36.50;18.52;;;9.80;99.90;;;;;;5056862;28;20615;-80
2022/10/12 01:12:20;;;;;;;29.38;17.05;;;9.80;99.90;;;;;;5063859;28;20695;-80
2022/10/12 01:15:10;;;;;;;32.78;17.25;;;9.60;99.90;;;;;;5062903;28;20232;-80
2022/10/12 01:18:09;;;;;;;35.03;16.95;;;9.70;99.90;;;;;;5058020;28;20224;-81
2022/10/12 01:21:15;;;;;;;28.27;16.90;;;9.60;99.90;;;;;;5069606;28;20698;-81
2022/10/12 01:24:27;;;;;;;34.08;17.05;;;9.60;99.90;;;;;;5062475;28;20220;-81
2022/10/12 01:27:33;;;;;;;34.08;17.95;;;9.70;99.90;;;;;;5061861;28;20208;-81
2022/10/12 01:30:25;;;;;;;32.58;17.15;;;9.70;99.90;;;;;;5058182;28;20215;-84
2022/10/12 01:33:37;;;;;;;32.08;17.58;;;9.70;99.90;;;;;;5064080;28;20224;-83
2022/10/12 01:36:33;;;;;;;32.55;17.17;;;9.70;99.90;;;;;;5062100;28;20223;-84
2022/10/12 01:39:29;;;;;;;35.83;17.50;;;9.70;99.90;;;;;;5059432;28;20223;-85
2022/10/12 01:42:24;;;;;;;31.73;16.88;;;9.60;99.90;;;;;;5062431;28;20703;-84
2022/10/12 01:45:15;;;;;;;29.80;16.17;;;9.60;99.90;;;;;;5065612;28;20228;-84
2022/10/12 01:48:06;;;;;;;33.90;17.38;;;9.60;99.90;;;;;;5057365;28;20255;-82
2022/10/12 01:50:59;;;;;;;39.40;17.77;;;9.70;99.90;;;;;;5057033;28;20341;-83
2022/10/12 01:53:56;;;;;;;34.05;17.13;;;9.70;99.90;;;;;;5061505;28;20684;-82
2022/10/12 01:56:56;;;;;;;30.77;16.55;;;9.60;99.90;;;;;;5062119;28;20714;-82
2022/10/12 01:59:53;;;;;;;25.33;15.52;;;9.60;99.90;;;;;;5074837;28;20224;-84
2022/10/12 02:02:50;;;;;;;28.63;16.85;;;9.60;99.90;;;;;;5054565;28;20235;-82
2022/10/12 02:05:48;;;;;;;29.92;16.63;;;9.60;99.90;;;;;;5056325;28;20223;-82
2022/10/12 02:08:41;;;;;;;29.77;15.70;;;9.50;99.90;;;;;;5058578;28;20216;-82
2022/10/12 02:11:34;;;;;;;33.53;15.93;;;9.50;99.90;;;;;;5060066;28;20223;-82
2022/10/12 02:14:27;;;;;;;33.05;16.83;;;9.40;99.90;;;;;;5064087;28;20303;-82
2022/10/12 02:17:20;;;;;;;31.13;16.52;;;9.60;99.90;;;;;;5068970;28;20307;-82
2022/10/12 02:20:13;;;;;;;28.55;15.85;;;9.60;99.90;;;;;;5062971;28;20228;-81
2022/10/12 02:23:03;;;;;;;33.45;16.83;;;9.60;99.90;;;;;;5066924;28;20243;-80
2022/10/12 02:25:53;;;;;;;31.17;16.58;;;9.50;99.90;;;;;;5060554;28;20253;-81
2022/10/12 02:28:44;;;;;;;33.10;16.13;;;9.40;99.90;;;;;;5061176;28;20212;-81
2022/10/12 02:31:38;;;;;;;31.55;15.75;;;9.40;99.90;;;;;;5062162;28;20223;-81
2022/10/12 02:34:33;;;;;;;29.83;16.58;;;9.40;99.90;;;;;;5062883;28;20224;-80
2022/10/12 02:37:32;;;;;;;30.40;16.42;;;9.50;99.90;;;;;;5060527;28;20216;-81
2022/10/12 02:40:28;;;;;;;34.63;15.55;;;9.40;99.90;;;;;;5058599;28;20224;-81
2022/10/12 02:43:22;;;;;;;36.67;16.73;;;9.40;99.90;;;;;;5059444;28;20718;-80
2022/10/12 02:46:12;;;;;;;30.35;16.35;;;9.40;99.90;;;;;;5057178;28;20231;-81
2022/10/12 02:49:02;;;;;;;30.00;15.98;;;9.40;99.90;;;;;;5062873;28;20224;-81
2022/10/12 02:51:51;;;;;;;36.22;16.40;;;9.40;99.90;;;;;;5058975;28;20235;-81
2022/10/12 02:54:40;;;;;;;29.42;15.27;;;9.30;99.90;;;;;;5059729;28;20743;-79
2022/10/12 02:57:30;;;;;;;30.38;15.55;;;9.40;99.90;;;;;;5062869;28;20227;-80
2022/10/12 03:00:20;;;;;;;34.78;15.85;;;9.40;99.90;;;;;;5058632;28;20699;-81
2022/10/12 03:03:08;;;;;;;32.00;16.30;;;9.40;99.90;;;;;;5064008;28;20219;-85
2022/10/12 03:05:58;;;;;;;36.03;15.25;;;9.40;99.90;;;;;;5063605;28;20594;-85
2022/10/12 03:08:47;;;;;;;35.88;15.73;;;9.40;99.90;;;;;;5055612;28;20217;-81
2022/10/12 03:11:36;;;;;;;31.98;16.85;;;9.30;99.90;;;;;;5058220;28;20239;-81
2022/10/12 03:14:26;;;;;;;40.97;16.45;;;9.20;99.90;;;;;;5068409;28;20592;-81
2022/10/12 03:17:15;;;;;;;32.20;15.57;;;9.30;99.90;;;;;;5061645;28;20583;-80
2022/10/12 03:20:05;;;;;;;29.58;15.48;;;9.30;99.90;;;;;;5044700;28;20224;-82
2022/10/12 03:22:54;;;;;;;28.67;15.48;;;9.20;99.90;;;;;;5058832;28;20235;-81
2022/10/12 03:25:42;;;;;;;26.08;16.00;;;9.30;99.90;;;;;;5055643;28;20588;-82
2022/10/12 03:28:31;;;;;;;33.72;14.63;;;9.30;99.90;;;;;;5060464;28;20656;-79
2022/10/12 03:31:22;;;;;;;31.08;15.77;;;9.10;99.90;;;;;;5049638;28;20623;-81
2022/10/12 03:34:10;;;;;;;35.67;15.33;;;9.10;99.90;;;;;;5059123;28;20220;-81
2022/10/12 03:36:59;;;;;;;27.77;14.65;;;9.20;99.90;;;;;;5061382;28;20227;-81
2022/10/12 03:39:48;;;;;;;29.17;14.75;;;9.20;99.90;;;;;;5058193;28;20239;-79
2022/10/12 03:42:37;;;;;;;30.17;15.02;;;9.20;99.90;;;;;;5060897;28;20220;-82
2022/10/12 03:45:25;;;;;;;30.15;15.48;;;9.10;99.90;;;;;;5056710;28;20231;-81
2022/10/12 03:48:15;;;;;;;28.25;15.60;;;9.20;99.90;;;;;;5057664;28;20232;-82
2022/10/12 03:51:04;;;;;;;28.67;14.90;;;9.20;99.90;;;;;;5049345;28;20243;-81
2022/10/12 03:53:53;;;;;;;28.50;15.27;;;9.20;99.90;;;;;;5071045;28;20239;-82
2022/10/12 03:56:42;;;;;;;26.80;14.75;;;9.20;99.90;;;;;;5060306;28;20324;-82
2022/10/12 03:59:31;;;;;;;27.40;15.07;;;9.10;99.90;;;;;;5059593;28;20382;-82
2022/10/12 04:02:19;;;;;;;35.45;14.95;;;9.10;99.90;;;;;;5061438;28;20339;-82
2022/10/12 04:05:10;;;;;;;30.63;14.75;;;9.10;99.90;;;;;;5061674;28;20223;-79
2022/10/12 04:07:59;;;;;;;32.22;14.52;;;9.10;99.90;;;;;;5051488;28;20224;-80
2022/10/12 04:10:49;;;;;;;31.53;15.50;;;9.10;99.90;;;;;;5052997;28;20325;-80
2022/10/12 04:13:37;;;;;;;25.83;14.75;;;9.10;99.90;;;;;;5060340;28;20225;-83
2022/10/12 04:16:29;;;;;;;32.25;14.93;;;9.10;99.90;;;;;;5060860;28;20592;-84
2022/10/12 04:19:18;;;;;;;34.08;15.27;;;9.10;99.90;;;;;;5076913;28;20241;-83
2022/10/12 04:22:08;;;;;;;29.33;15.18;;;9.10;99.90;;;;;;5060938;28;20217;-84
2022/10/12 04:24:57;;;;;;;28.70;14.63;;;9.00;99.90;;;;;;5056961;28;20564;-83
2022/10/12 04:27:46;;;;;;;28.35;14.75;;;9.10;99.90;;;;;;5059815;28;20220;-83
2022/10/12 04:30:34;;;;;;;26.38;14.95;;;9.10;99.90;;;;;;5057445;28;20227;-83
2022/10/12 04:33:23;;;;;;;28.27;15.35;;;9.10;99.90;;;;;;5056489;28;20228;-84
2022/10/12 04:36:12;;;;;;;27.60;14.73;;;9.00;99.90;;;;;;5061007;28;20535;-83
2022/10/12 04:39:02;;;;;;;26.02;14.93;;;9.00;99.90;;;;;;5059163;28;20726;-82
2022/10/12 04:41:51;;;;;;;28.77;14.83;;;9.00;99.90;;;;;;5056406;28;20224;-82
2022/10/12 04:44:39;;;;;;;28.23;15.40;;;9.00;99.90;;;;;;5057817;28;20224;-82
2022/10/12 04:47:28;;;;;;;33.37;15.90;;;9.00;99.90;;;;;;5058935;28;20227;-83
2022/10/12 04:50:17;;;;;;;35.88;15.57;;;9.00;99.90;;;;;;5071240;28;20868;-82
2022/10/12 04:53:05;;;;;;;26.27;15.18;;;9.00;99.90;;;;;;5057707;28;20217;-82
2022/10/12 04:55:55;;;;;;;32.33;15.27;;;9.00;99.90;;;;;;5053139;28;20230;-82
2022/10/12 04:58:44;;;;;;;32.78;16.20;;;9.00;99.90;;;;;;5061896;28;20217;-83
2022/10/12 05:01:33;;;;;;;37.70;16.73;;;9.00;99.90;;;;;;5058892;28;20315;-81
2022/10/12 05:04:25;;;;;;;33.30;15.88;;;9.00;99.90;;;;;;5061436;28;20275;-82
2022/10/12 05:07:14;;;;;;;30.35;15.73;;;8.90;99.90;;;;;;5058066;28;20620;-81
2022/10/12 05:10:03;;;;;;;29.90;15.30;;;8.90;99.90;;;;;;5063284;28;20310;-79
2022/10/12 05:12:53;;;;;;;28.80;16.10;;;8.90;99.90;;;;;;5063490;28;20247;-78
2022/10/12 05:15:42;;;;;;;31.80;16.90;;;9.00;99.90;;;;;;5063297;28;20212;-80
2022/10/12 05:18:31;;;;;;;31.02;15.93;;;8.90;99.90;;;;;;5062475;28;20216;-80
2022/10/12 05:21:20;;;;;;;35.07;16.43;;;8.90;99.90;;;;;;5065836;28;20292;-82
2022/10/12 05:24:10;;;;;;;28.70;15.77;;;8.90;99.90;;;;;;5062076;28;20232;-81
2022/10/12 05:26:59;;;;;;;31.70;16.23;;;9.00;99.90;;;;;;5064530;28;20580;-76
2022/10/12 05:29:49;;;;;;;30.50;16.40;;;8.90;99.90;;;;;;5064754;28;20246;-79
2022/10/12 05:32:38;;;;;;;33.42;16.50;;;9.00;99.90;;;;;;5060466;28;20212;-81
2022/10/12 05:35:27;;;;;;;29.30;15.98;;;8.90;99.90;;;;;;5059635;28;20310;-82
2022/10/12 05:38:17;;;;;;;30.17;15.07;;;9.00;99.90;;;;;;5060663;28;20722;-81
2022/10/12 05:41:06;;;;;;;30.00;15.63;;;9.00;99.90;;;;;;5056157;28;20310;-81
2022/10/12 05:43:55;;;;;;;28.73;15.55;;;9.10;99.90;;;;;;5061572;28;20311;-80
2022/10/12 05:46:45;;;;;;;33.03;15.97;;;9.10;99.90;;;;;;5061389;28;20224;-80
2022/10/12 05:49:35;;;;;;;34.90;16.27;;;9.10;99.90;;;;;;5050822;28;20260;-78
2022/10/12 05:52:24;;;;;;;28.50;15.27;;;9.20;99.90;;;;;;5062526;28;20226;-80
2022/10/12 05:55:12;;;;;;;39.67;17.13;;;9.20;99.90;;;;;;5062334;28;20224;-81
2022/10/12 05:58:01;;;;;;;33.10;16.20;;;9.20;99.90;;;;;;5056988;28;20433;-80
2022/10/12 06:00:50;;;;;;;32.13;16.73;;;9.10;99.90;;;;;;5062466;28;20561;-80
2022/10/12 06:03:41;;;;;;;28.77;16.40;;;9.20;99.90;;;;;;5063718;28;20224;-77
2022/10/12 06:06:29;;;;;;;36.42;17.10;;;9.30;99.90;;;;;;5059942;28;20213;-79
2022/10/12 06:09:18;;;;;;;30.25;16.52;;;9.30;99.90;;;;;;5061159;28;20216;-80
2022/10/12 06:35:58;;;;;;;34.50;17.73;;;9.60;99.90;;;;;;5003461;28;20656;-80
2022/10/12 06:38:47;;;;;;;35.65;16.98;;;9.70;99.90;;;;;;4984419;28;20590;-81
2022/10/12 06:41:36;;;;;;;34.10;17.47;;;9.70;99.90;;;;;;5001282;28;20814;-78
2022/10/12 06:44:29;;;;;;;38.50;18.23;;;9.70;99.90;;;;;;5012400;28;20359;-80
2022/10/12 06:47:18;;;;;;;40.70;16.70;;;9.70;99.90;;;;;;4999106;28;20231;-80
2022/10/12 06:50:08;;;;;;;36.78;17.75;;;9.70;99.90;;;;;;4995571;28;20745;-80
2022/10/12 06:52:58;;;;;;;34.35;17.58;;;9.80;99.90;;;;;;4998830;28;20234;-80
2022/10/12 06:55:48;;;;;;;33.50;16.97;;;9.90;99.90;;;;;;5014338;28;20238;-80
2022/10/12 06:58:38;;;;;;;35.50;16.95;;;9.90;99.90;;;;;;5010823;28;20217;-79
2022/10/12 07:01:27;;;;;;;35.10;17.67;;;10.10;99.90;;;;;;5003811;28;20725;-80
2022/10/12 07:04:16;;;;;;;41.30;17.88;;;10.10;99.90;;;;;;5019258;28;20245;-79
2022/10/12 07:07:05;;;;;;;37.03;17.85;;;10.10;99.90;;;;;;5012009;28;20232;-79
2022/10/12 07:09:55;;;;;;;36.05;16.50;;;10.20;99.90;;;;;;5013965;28;20276;-78
2022/10/12 07:12:43;;;;;;;35.25;16.75;;;10.30;99.90;;;;;;5016412;28;20222;-79
2022/10/12 07:15:32;;;;;;;39.30;16.67;;;10.40;99.90;;;;;;5012508;28;20225;-80
2022/10/12 07:18:21;;;;;;;32.85;16.40;;;10.50;99.90;;;;;;5014729;28;20598;-79
2022/10/12 07:21:13;;;;;;;30.73;16.17;;;10.50;99.90;;;;;;5013395;28;20277;-79
2022/10/12 07:24:02;;;;;;;33.63;16.98;;;10.60;99.90;;;;;;5008823;28;20227;-79
2022/10/12 07:26:52;;;;;;;38.10;16.90;;;10.70;99.90;;;;;;5019329;28;20225;-79
2022/10/12 07:29:40;;;;;;;30.90;16.15;;;10.70;99.90;;;;;;4993022;28;20229;-79
2022/10/12 07:32:29;;;;;;;33.80;16.52;;;10.70;99.90;;;;;;4990835;28;20223;-80
2022/10/12 07:35:18;;;;;;;37.35;16.45;;;10.80;99.90;;;;;;5018184;28;20213;-79
2022/10/12 07:38:07;;;;;;;33.22;17.05;;;10.90;99.90;;;;;;5051524;28;20460;-81
2022/10/12 07:40:59;;;;;;;33.00;16.48;;;11.00;99.90;;;;;;5034362;28;20223;-80
2022/10/12 07:43:55;;;;;;;31.27;16.80;;;11.10;99.90;;;;;;5040318;28;20244;-80
2022/10/12 07:46:44;;;;;;;34.60;17.13;;;11.40;99.90;;;;;;5028053;28;20270;-80
2022/10/12 07:49:33;;;;;;;38.38;16.05;;;11.90;99.90;;;;;;5013070;28;20214;-80
2022/10/12 07:52:21;;;;;;;35.08;15.60;;;12.60;99.90;;;;;;5000193;28;20776;-79
2022/10/12 07:55:10;;;;;;;37.47;14.57;;;12.90;99.90;;;;;;5032044;28;20610;-79
2022/10/12 07:57:59;;;;;;;31.13;14.48;;;12.70;99.90;;;;;;5041817;28;20703;-79
2022/10/12 08:00:49;;;;;;;31.40;14.48;;;12.60;99.90;;;;;;5035465;28;20222;-80
2022/10/12 08:03:38;;;;;;;32.30;14.85;;;12.60;99.90;;;;;;5040854;28;20221;-79
2022/10/12 08:06:28;;;;;;;31.13;15.63;;;12.70;99.90;;;;;;5026868;28;20720;-81
2022/10/12 08:09:17;;;;;;;40.30;15.88;;;13.00;99.90;;;;;;5014250;28;20218;-80
2022/10/12 08:12:07;;;;;;;30.38;14.80;;;13.30;99.90;;;;;;5009899;28;20218;-80
2022/10/12 08:14:56;;;;;;;28.45;14.50;;;13.70;99.90;;;;;;5024791;28;20267;-81
2022/10/12 08:17:45;;;;;;;34.28;15.48;;;14.10;99.90;;;;;;5024256;28;20221;-80
2022/10/12 08:20:34;;;;;;;28.73;13.30;;;14.60;99.90;;;;;;5034812;28;20237;-80
2022/10/12 08:23:23;;;;;;;18.88;10.50;;;14.90;99.90;;;;;;5022490;28;20213;-79
2022/10/12 08:26:13;;;;;;;25.13;10.95;;;15.20;99.90;;;;;;5035127;28;20217;-81
2022/10/12 08:29:03;;;;;;;32.58;11.45;;;15.50;99.90;;;;;;5029272;28;20743;-80
2022/10/12 08:31:53;;;;;;;30.08;10.30;;;15.80;99.90;;;;;;5035380;28;20229;-81
2022/10/12 08:34:43;;;;;;;20.77;10.18;;;16.20;99.90;;;;;;5029998;28;20237;-80
2022/10/12 08:37:32;;;;;;;31.00;10.70;;;16.40;99.90;;;;;;5020489;28;20588;-78
2022/10/12 08:40:32;;;;;;;28.30;9.80;;;16.60;99.90;;;;;;5025922;28;20287;-78
2022/10/12 08:43:34;;;;;;;18.58;9.38;;;16.80;99.90;;;;;;5022905;28;20240;-78
2022/10/12 08:46:24;;;;;;;17.92;6.88;;;16.90;99.90;;;;;;5022126;28;20217;-78
2022/10/12 08:49:16;;;;;;;17.15;7.20;;;16.60;99.90;;;;;;5020287;28;20235;-79
2022/10/12 08:52:18;;;;;;;16.40;6.85;;;15.90;99.90;;;;;;5037591;28;20691;-79
2022/10/12 08:55:18;;;;;;;18.90;6.28;;;15.40;99.90;;;;;;5032604;28;20214;-79
2022/10/12 08:58:15;;;;;;;13.55;6.57;;;14.90;99.90;;;;;;5007573;28;20222;-80
2022/10/12 09:01:15;;;;;;;14.07;5.75;;;14.70;99.90;;;;;;5038065;28;20229;-78
2022/10/12 09:04:33;;;;;;;17.10;5.95;;;14.50;99.90;;;;;;5022016;28;20256;-77
2022/10/12 09:07:27;;;;;;;15.15;5.60;;;14.30;99.90;;;;;;5002169;28;20258;-79
2022/10/12 09:10:30;;;;;;;20.83;6.18;;;14.20;99.90;;;;;;5030765;28;20600;-79
2022/10/12 09:13:34;;;;;;;17.27;5.93;;;14.10;99.90;;;;;;5019888;28;20640;-79
2022/10/12 09:16:25;;;;;;;16.55;5.95;;;14.10;99.90;;;;;;5021425;28;20228;-78
2022/10/12 09:19:19;;;;;;;13.35;5.90;;;14.10;99.90;;;;;;5017719;28;20222;-78
2022/10/12 09:22:17;;;;;;;13.90;5.25;;;14.00;99.90;;;;;;5026158;28;20217;-78
2022/10/12 09:25:14;;;;;;;12.55;4.55;;;14.00;99.90;;;;;;5016909;28;20877;-78
2022/10/12 09:28:15;;;;;;;15.27;5.03;;;14.00;99.90;;;;;;5021088;28;20239;-77
2022/10/12 09:31:22;;;;;;;15.40;4.90;;;14.00;99.90;;;;;;5018923;28;20221;-77
2022/10/12 09:34:13;;;;;;;14.20;4.45;;;14.00;99.90;;;;;;5035799;28;20235;-77
2022/10/12 09:37:12;;;;;;;13.45;4.38;;;14.00;99.90;;;;;;5016476;28;20835;-74
2022/10/12 09:40:01;;;;;;;15.68;4.88;;;14.10;99.90;;;;;;5033450;28;20209;-76
2022/10/12 09:42:52;;;;;;;13.95;6.40;;;14.00;99.90;;;;;;5008539;28;20228;-77
2022/10/12 09:45:41;;;;;;;17.15;5.32;;;14.00;99.90;;;;;;5010017;28;20221;-77
2022/10/12 09:48:29;;;;;;;15.63;5.38;;;14.00;99.90;;;;;;5025919;28;20218;-77
2022/10/12 09:51:19;;;;;;;11.98;4.35;;;14.00;99.90;;;;;;5011173;28;20240;-77
2022/10/12 09:54:15;;;;;;;15.98;4.93;;;14.10;99.90;;;;;;5033366;28;20220;-77
2022/10/12 09:57:04;;;;;;;8.88;3.85;;;14.10;99.90;;;;;;5023118;28;20233;-78
2022/10/12 09:59:55;;;;;;;12.40;4.50;;;14.00;99.90;;;;;;5017023;28;20221;-77
2022/10/12 10:02:49;;;;;;;10.77;3.95;;;14.10;99.90;;;;;;5023289;28;20251;-79
2022/10/12 10:05:38;;;;;;;12.75;4.13;;;14.10;99.90;;;;;;5021210;28;20649;-78
2022/10/12 10:08:27;;;;;;;13.48;4.18;;;14.10;99.90;;;;;;5024291;28;20245;-78
2022/10/12 10:11:20;;;;;;;11.63;3.47;;;14.10;99.90;;;;;;5035901;28;20222;-78
2022/10/12 10:14:15;;;;;;;14.95;3.60;;;14.20;99.90;;;;;;5039337;28;20241;-79
2022/10/12 10:17:05;;;;;;;11.93;3.83;;;14.20;99.90;;;;;;5031080;28;20942;-78
2022/10/12 10:19:56;;;;;;;14.60;3.97;;;14.20;99.90;;;;;;5034478;28;20228;-78
2022/10/12 10:22:48;;;;;;;11.98;4.50;;;14.20;99.90;;;;;;5035782;28;20232;-78
2022/10/12 10:25:37;;;;;;;16.38;3.83;;;14.20;99.90;;;;;;5021106;28;20228;-77
2022/10/12 10:28:29;;;;;;;12.52;3.80;;;14.30;99.90;;;;;;5033054;28;20214;-78
2022/10/12 10:31:22;;;;;;;17.88;4.85;;;14.20;99.90;;;;;;5020906;28;20231;-79
2022/10/12 10:34:20;;;;;;;11.65;3.65;;;14.30;99.90;;;;;;5018115;28;20229;-79
2022/10/12 10:37:16;;;;;;;11.25;4.03;;;14.30;99.90;;;;;;5033734;28;20284;-77
2022/10/12 10:40:06;;;;;;;12.18;3.70;;;14.30;99.90;;;;;;5025028;28;20235;-76
2022/10/12 10:42:57;;;;;;;11.45;3.72;;;14.30;99.90;;;;;;5026252;28;20220;-77
2022/10/12 10:45:51;;;;;;;11.82;3.67;;;14.30;99.90;;;;;;5013917;28;20244;-77
2022/10/12 10:48:52;;;;;;;13.50;4.45;;;14.30;99.90;;;;;;5029147;28;20229;-77
2022/10/12 10:51:48;;;;;;;15.30;4.22;;;14.40;99.90;;;;;;5018229;28;20227;-77
2022/10/12 10:54:37;;;;;;;13.85;3.90;;;14.40;99.90;;;;;;5016148;28;20752;-75
2022/10/12 10:57:27;;;;;;;10.85;3.60;;;14.50;99.90;;;;;;5016662;28;20245;-77
2022/10/12 11:00:19;;;;;;;11.45;3.30;;;14.60;99.90;;;;;;5028722;28;20237;-77
2022/10/12 11:03:31;;;;;;;12.48;3.30;;;14.50;99.90;;;;;;5034391;28;20229;-77
2022/10/12 11:06:30;;;;;;;14.43;3.40;;;14.60;99.90;;;;;;5018877;28;20213;-78
2022/10/12 11:09:28;;;;;;;12.75;3.47;;;14.70;99.90;;;;;;5037463;28;20281;-77
2022/10/12 11:12:21;;;;;;;11.50;3.70;;;14.70;99.90;;;;;;5028505;28;20225;-77
2022/10/12 11:15:23;;;;;;;11.35;3.38;;;14.70;99.90;;;;;;5027444;28;20221;-77
2022/10/12 11:18:16;;;;;;;13.07;3.08;;;14.70;99.90;;;;;;5015331;28;20223;-79
2022/10/12 11:21:12;;;;;;;12.15;2.88;;;14.70;99.90;;;;;;5035670;28;20595;-77
2022/10/12 11:24:11;;;;;;;9.73;3.47;;;14.80;99.90;;;;;;5019122;28;20220;-77
2022/10/12 11:27:05;;;;;;;11.15;3.63;;;14.80;99.90;;;;;;5019252;28;20584;-79
2022/10/12 11:29:59;;;;;;;13.40;3.05;;;14.80;99.90;;;;;;5003496;28;20224;-78
2022/10/12 11:33:04;;;;;;;13.38;3.22;;;14.80;99.90;;;;;;5037502;28;20260;-77
2022/10/12 11:35:54;;;;;;;9.70;2.90;;;14.80;99.90;;;;;;5024118;28;20244;-78
2022/10/12 11:38:47;;;;;;;7.85;2.67;;;14.80;99.90;;;;;;5037838;28;20225;-78
2022/10/12 11:41:44;;;;;;;11.15;2.70;;;14.80;99.90;;;;;;5014390;28;20566;-77
2022/10/12 11:44:55;;;;;;;9.43;2.88;;;14.80;99.90;;;;;;5012236;28;20237;-79
2022/10/12 11:47:47;;;;;;;11.05;3.35;;;14.80;99.90;;;;;;5019336;28;20225;-78
2022/10/12 11:50:39;;;;;;;9.02;2.97;;;14.80;99.90;;;;;;5020374;28;20912;-78
2022/10/12 11:53:36;;;;;;;10.90;3.28;;;14.70;99.90;;;;;;5025004;28;20778;-78
2022/10/12 11:56:29;;;;;;;8.45;3.63;;;14.70;99.90;;;;;;5028032;28;21047;-78
2022/10/12 11:59:24;;;;;;;10.55;3.50;;;14.80;99.90;;;;;;5037233;28;20217;-77
2022/10/12 12:02:22;;;;;;;14.13;3.92;;;14.80;99.90;;;;;;5025695;28;20700;-77
2022/10/12 12:05:12;;;;;;;12.70;3.10;;;14.80;99.90;;;;;;5026406;28;20225;-79
2022/10/12 12:08:04;;;;;;;16.55;6.43;;;14.80;99.90;;;;;;5031209;28;20229;-76
2022/10/12 12:11:05;;;;;;;8.95;3.50;;;14.80;99.90;;;;;;5018311;28;20223;-78
2022/10/12 12:14:57;;;;;;;12.07;3.78;;;14.80;99.90;;;;;;5023905;28;20272;-77
2022/10/12 12:18:10;;;;;;;12.10;3.50;;;14.80;99.90;;;;;;4969724;28;20606;-77
2022/10/12 12:21:06;;;;;;;9.88;3.55;;;14.80;99.90;;;;;;4955913;28;20227;-79
2022/10/12 12:23:56;;;;;;;8.82;3.30;;;14.80;99.90;;;;;;5034236;28;20228;-78
2022/10/12 12:26:47;;;;;;;10.80;3.50;;;14.90;99.90;;;;;;5027206;28;20247;-78
2022/10/12 12:29:36;;;;;;;12.90;3.40;;;15.00;99.90;;;;;;5016283;28;20229;-78
2022/10/12 12:32:27;;;;;;;11.27;3.22;;;15.10;99.90;;;;;;5028199;28;20233;-79
2022/10/12 12:35:24;;;;;;;7.25;2.70;;;15.30;99.90;;;;;;5032855;28;20233;-79
2022/10/12 12:38:29;;;;;;;6.72;2.88;;;15.30;99.90;;;;;;5024527;28;20240;-76
2022/10/12 12:41:19;;;;;;;9.18;3.20;;;15.30;99.90;;;;;;5015552;28;20588;-77
2022/10/12 12:44:39;;;;;;;10.05;3.88;;;15.30;99.90;;;;;;5024025;28;20228;-79
2022/10/12 12:47:38;;;;;;;12.70;4.68;;;15.40;99.90;;;;;;5023053;28;20273;-78
2022/10/12 12:50:37;;;;;;;8.13;3.08;;;15.30;99.90;;;;;;5019126;28;20221;-79
2022/10/12 12:53:26;;;;;;;7.63;2.50;;;15.30;99.90;;;;;;5015794;28;20222;-79
2022/10/12 13:08:59;;;;;;;10.43;3.05;;;15.50;99.90;;;;;;5018145;27;20584;-78
2022/10/12 13:12:12;;;;;;;8.02;2.97;;;15.50;99.90;;;;;;5035444;28;20212;-79
2022/10/12 13:15:31;;;;;;;6.40;2.70;;;15.50;99.90;;;;;;5032854;28;20228;-79
2022/10/12 13:18:46;;;;;;;11.77;2.67;;;15.50;99.90;;;;;;5038792;28;20221;-79
2022/10/12 13:21:39;;;;;;;8.65;2.50;;;15.50;99.90;;;;;;5039395;28;20236;-78
2022/10/12 13:24:36;;;;;;;5.40;2.47;;;15.50;99.90;;;;;;5039081;28;20235;-79
2022/10/12 13:27:32;;;;;;;7.82;2.55;;;15.50;99.90;;;;;;5024085;28;20245;-78
2022/10/12 13:30:30;;;;;;;8.32;2.60;;;15.50;99.90;;;;;;5041042;28;20213;-78
2022/10/12 13:33:25;;;;;;;5.28;2.38;;;15.40;99.90;;;;;;5036008;28;20588;-81
2022/10/12 13:36:24;;;;;;;9.50;2.60;;;15.40;99.90;;;;;;5036304;28;20241;-79
2022/10/12 13:39:16;;;;;;;7.78;2.25;;;15.30;99.90;;;;;;5037046;28;20227;-78
2022/10/12 13:42:06;;;;;;;9.35;2.60;;;15.30;99.90;;;;;;5017597;28;20225;-81
2022/10/12 13:44:55;;;;;;;11.75;2.58;;;15.20;99.90;;;;;;5033105;28;20235;-79
2022/10/12 13:47:44;;;;;;;8.73;2.40;;;15.20;99.90;;;;;;5022087;28;20233;-80
2022/10/12 13:50:33;;;;;;;9.20;2.47;;;15.20;99.90;;;;;;5031108;28;20613;-79
2022/10/12 13:53:22;;;;;;;9.23;2.10;;;15.10;99.90;;;;;;5031638;28;20687;-78
2022/10/12 13:56:15;;;;;;;7.75;2.30;;;15.20;99.90;;;;;;5034668;28;20350;-78
2022/10/12 13:59:06;;;;;;;7.85;2.55;;;15.20;99.90;;;;;;5024096;28;20213;-79
2022/10/12 14:02:01;;;;;;;5.82;2.13;;;15.20;99.90;;;;;;5034252;28;20227;-79
2022/10/12 14:04:54;;;;;;;7.57;2.65;;;15.30;99.90;;;;;;5035753;28;20313;-77
2022/10/12 14:07:45;;;;;;;8.02;2.30;;;15.20;99.90;;;;;;5022838;28;20221;-77
2022/10/12 14:10:36;;;;;;;6.97;2.30;;;15.20;99.90;;;;;;5023404;28;20233;-78
2022/10/12 14:13:29;;;;;;;6.43;2.10;;;15.30;99.90;;;;;;5021823;28;20213;-79
2022/10/12 14:16:19;;;;;;;9.45;2.50;;;15.30;99.90;;;;;;5034069;28;20232;-79
2022/10/12 14:19:20;;;;;;;6.53;2.10;;;15.20;99.90;;;;;;5027908;28;20222;-79
2022/10/12 14:22:09;;;;;;;8.80;2.38;;;15.20;99.90;;;;;;5023540;28;20312;-80
2022/10/12 14:25:11;;;;;;;12.15;2.80;;;15.10;99.90;;;;;;5019433;28;20229;-79
2022/10/12 14:28:03;;;;;;;6.75;2.13;;;15.10;99.90;;;;;;5005978;28;20315;-80
2022/10/12 14:30:53;;;;;;;7.90;2.70;;;15.10;99.90;;;;;;5022398;28;20881;-78
2022/10/12 14:33:43;;;;;;;8.05;2.50;;;15.10;99.90;;;;;;5017695;28;20225;-80
2022/10/12 14:36:31;;;;;;;5.82;2.53;;;15.10;99.90;;;;;;5024437;28;20217;-79
2022/10/12 14:39:20;;;;;;;5.85;2.65;;;15.10;99.90;;;;;;5005802;28;20221;-79
2022/10/12 14:42:20;;;;;;;8.95;3.45;;;15.10;99.90;;;;;;5009492;28;20592;-79
2022/10/12 14:45:23;;;;;;;11.63;3.72;;;15.10;99.90;;;;;;5014832;28;20476;-79
2022/10/12 14:48:19;;;;;;;4.97;2.80;;;15.10;99.90;;;;;;5023424;28;20739;-78
2022/10/12 14:51:09;;;;;;;7.30;2.50;;;15.10;99.90;;;;;;5017229;28;20213;-78
2022/10/12 14:54:04;;;;;;;10.43;3.03;;;15.10;99.90;;;;;;5021290;28;20638;-75
2022/10/12 14:56:53;;;;;;;7.22;2.85;;;15.10;99.90;;;;;;5002054;28;20225;-77
2022/10/12 15:25:44;;;;;;;14.27;3.35;;;14.90;99.90;;;;;;5029765;27;20668;-79
2022/10/12 15:28:33;;;;;;;10.10;3.83;;;14.90;99.90;;;;;;5029307;28;20229;-77
2022/10/12 15:31:22;;;;;;;9.32;3.17;;;14.90;99.90;;;;;;5038910;28;20225;-78
2022/10/12 15:34:13;;;;;;;7.57;2.97;;;14.90;99.90;;;;;;5043318;28;20889;-78
2022/10/12 15:37:02;;;;;;;8.73;3.28;;;14.90;99.90;;;;;;5052605;28;20697;-74
2022/10/12 15:39:56;;;;;;;9.95;3.60;;;14.90;99.90;;;;;;5047229;28;20227;-77
2022/10/12 15:42:47;;;;;;;9.48;3.10;;;14.90;99.90;;;;;;5054387;28;20211;-77
2022/10/12 15:45:38;;;;;;;13.85;3.55;;;14.80;99.90;;;;;;5056303;28;20323;-78
2022/10/12 15:48:27;;;;;;;10.10;4.10;;;14.90;99.90;;;;;;5056839;28;20224;-77
2022/10/12 15:51:21;;;;;;;10.60;3.72;;;14.80;99.90;;;;;;5054218;28;20750;-79